Ashville, Alabama
Current Conditions -  °F | °C
As of 7:55 AM on Wednesday 28 Jan 2015 (Local Time) from KGAD Reporting Station
Clear Clear  
Wind Chill: 29°   Ceiling: Unl
Heat Index: 36°   Visibility: 10mi
Dew Point: 27°   Wind: 9mph
Humidity: 70%   Direction: 40°NE
Pressure: 30.3"   Gusts: NA
Location:  33.84°N, 86.25°W
Report Text: KGAD 281355Z 04008KT 10SM CLR 02/M03 A3030 RMK AO1
Loading
Personal Weather Stations






























Interactive Weather Map New forecast layout! Learn more

10-Day Weather Forecast

Advertisements
Track Severe Weather on mobile